createdAt,value
2018-01-28T00:01:03.915Z,98571.01
2018-01-28T00:03:33.969Z,98563.48
2018-01-28T00:06:02.402Z,98558.39
2018-01-28T00:08:32.423Z,98556.70
2018-01-28T00:11:01.830Z,98558.77
2018-01-28T00:13:30.230Z,98560.02
2018-01-28T00:15:59.299Z,98563.03
2018-01-28T00:18:27.653Z,98555.50
2018-01-28T00:20:56.743Z,98552.99
2018-01-28T00:23:27.322Z,98550.05
2018-01-28T00:25:55.821Z,98554.69
2018-01-28T00:28:24.146Z,98547.18
2018-01-28T00:30:52.482Z,98544.67
2018-01-28T00:33:20.821Z,98535.06
2018-01-28T00:35:49.134Z,98533.44
2018-01-28T00:38:17.466Z,98527.97
2018-01-28T00:40:45.826Z,98527.59
2018-01-28T00:43:16.339Z,98520.88
2018-01-28T00:45:46.472Z,98529.61
2018-01-28T00:48:14.987Z,98533.88
2018-01-28T00:50:45.350Z,98538.37
2018-01-28T00:53:13.783Z,98542.22
2018-01-28T00:55:43.034Z,98549.31
2018-01-28T00:58:11.485Z,98554.80
2018-01-28T01:00:39.876Z,98553.61
2018-01-28T01:03:08.186Z,98547.27
2018-01-28T01:05:37.276Z,98541.05
2018-01-28T01:08:05.762Z,98547.70
2018-01-28T01:10:34.055Z,98545.20
2018-01-28T01:13:02.470Z,98547.33
2018-01-28T01:15:30.880Z,98548.58
2018-01-28T01:17:59.220Z,98551.53
2018-01-28T01:20:27.741Z,98554.95
2018-01-28T01:22:58.914Z,98557.52
2018-01-28T01:25:27.226Z,98556.30
2018-01-28T01:27:56.364Z,98551.36
2018-01-28T01:30:24.684Z,98556.06
2018-01-28T01:32:54.760Z,98553.58
2018-01-28T01:35:23.141Z,98551.13
2018-01-28T01:37:52.272Z,98561.17
2018-01-28T01:40:20.605Z,98563.24
2018-01-28T01:42:50.624Z,98559.63
2018-01-28T01:45:18.957Z,98558.39
2018-01-28T01:47:47.235Z,98554.31
2018-01-28T01:50:15.549Z,98555.66
2018-01-28T01:52:43.878Z,98559.06
2018-01-28T01:55:13.878Z,98550.80
2018-01-28T01:57:42.226Z,98557.58
2018-01-28T02:00:10.610Z,98553.92
2018-01-28T02:02:38.921Z,98556.52
2018-01-28T02:05:07.257Z,98562.51
2018-01-28T02:07:35.533Z,98560.52
2018-01-28T02:10:03.863Z,98563.67
2018-01-28T02:12:32.179Z,98566.27
2018-01-28T02:15:00.514Z,98557.92
2018-01-28T02:17:28.950Z,98557.42
2018-01-28T02:19:57.424Z,98554.97
2018-01-28T02:22:25.768Z,98556.66
2018-01-28T02:24:54.080Z,98560.81
2018-01-28T02:27:22.392Z,98559.58
2018-01-28T02:29:53.378Z,98559.34
2018-01-28T02:32:21.776Z,98559.90
2018-01-28T02:34:50.101Z,98563.38
2018-01-28T02:37:18.637Z,98563.88
2018-01-28T02:39:46.969Z,98558.49
2018-01-28T02:42:18.268Z,98565.73
2018-01-28T02:44:47.540Z,98559.59
2018-01-28T02:47:15.889Z,98560.50
2018-01-28T02:49:44.266Z,98564.41
2018-01-28T02:52:12.586Z,98562.07
2018-01-28T02:54:40.926Z,98558.61
2018-01-28T02:57:09.216Z,98562.09
2018-01-28T02:59:39.157Z,98559.74
2018-01-28T03:02:09.335Z,98560.68
2018-01-28T03:04:37.680Z,98566.02
2018-01-28T03:07:06.734Z,98563.17
2018-01-28T03:09:35.254Z,98556.21
2018-01-28T03:12:03.572Z,98557.09
2018-01-28T03:14:33.556Z,98550.80
2018-01-28T03:17:01.868Z,98551.84
2018-01-28T03:19:30.192Z,98552.07
2018-01-28T03:21:58.494Z,98548.52
2018-01-28T03:24:26.850Z,98551.55
2018-01-28T03:26:55.174Z,98546.09
2018-01-28T03:29:25.145Z,98544.86
2018-01-28T03:31:53.537Z,98542.86
2018-01-28T03:34:21.944Z,98551.34
2018-01-28T03:36:50.270Z,98556.09
2018-01-28T03:39:18.559Z,98562.25
2018-01-28T03:41:46.888Z,98558.91
2018-01-28T03:44:15.198Z,98549.38
2018-01-28T03:46:43.506Z,98542.84
2018-01-28T03:49:11.821Z,98533.25
2018-01-28T03:51:40.302Z,98527.48
2018-01-28T03:54:08.579Z,98523.70
2018-01-28T03:56:36.878Z,98529.17
2018-01-28T03:59:05.228Z,98531.84
2018-01-28T04:01:33.552Z,98525.84
2018-01-28T04:04:04.085Z,98526.38
2018-01-28T04:06:32.447Z,98528.89
2018-01-28T04:09:00.771Z,98529.61
2018-01-28T04:11:29.112Z,98536.14
2018-01-28T04:13:57.512Z,98530.56
2018-01-28T04:16:27.898Z,98523.84
2018-01-28T04:18:58.728Z,98530.27
2018-01-28T04:21:27.036Z,98527.75
2018-01-28T04:23:57.571Z,98517.99
2018-01-28T04:26:28.438Z,98511.95
2018-01-28T04:28:56.758Z,98520.67
2018-01-28T04:31:26.818Z,98521.11
2018-01-28T04:33:55.152Z,98527.83
2018-01-28T04:36:23.726Z,98518.45
2018-01-28T04:38:52.025Z,98520.75
2018-01-28T04:41:22.091Z,98531.33
2018-01-28T04:43:50.432Z,98533.16
2018-01-28T04:46:19.509Z,98544.34
2018-01-28T04:48:47.783Z,98539.47
2018-01-28T04:51:16.202Z,98539.25
2018-01-28T04:53:44.557Z,98542.64
2018-01-28T04:56:14.506Z,98541.30
2018-01-28T04:58:44.420Z,98540.42
2018-01-28T05:01:15.613Z,98536.13
2018-01-28T05:03:45.583Z,98534.11
2018-01-28T05:06:16.613Z,98530.28
2018-01-28T05:08:47.608Z,98528.15
2018-01-28T05:11:16.752Z,98526.45
2018-01-28T05:13:45.109Z,98531.92
2018-01-28T05:16:13.461Z,98527.84
2018-01-28T05:18:41.797Z,98523.99
2018-01-28T05:21:10.113Z,98528.42
2018-01-28T05:23:38.474Z,98528.52
2018-01-28T05:26:06.737Z,98533.91
2018-01-28T05:28:35.069Z,98541.52
2018-01-28T05:31:04.759Z,98540.17
2018-01-28T05:33:35.707Z,98542.69
2018-01-28T05:36:04.958Z,98539.84
2018-01-28T05:38:34.039Z,98535.61
2018-01-28T05:41:02.371Z,98535.74
2018-01-28T05:43:30.712Z,98536.94
2018-01-28T05:45:59.265Z,98537.53
2018-01-28T05:48:27.676Z,98530.11
2018-01-28T05:50:56.700Z,98540.92
2018-01-28T05:53:24.985Z,98536.41
2018-01-28T05:55:54.061Z,98546.53
2018-01-28T05:58:22.557Z,98535.61
2018-01-28T06:00:52.367Z,98530.17
2018-01-28T06:03:21.797Z,98529.67
2018-01-28T06:05:51.850Z,98534.25
2018-01-28T06:08:20.175Z,98550.03
2018-01-28T06:10:48.467Z,98546.13
2018-01-28T06:13:16.809Z,98540.25
2018-01-28T06:15:46.043Z,98548.20
2018-01-28T06:18:15.931Z,98549.95
2018-01-28T06:20:44.264Z,98546.70
2018-01-28T06:23:12.545Z,98550.61
2018-01-28T06:25:40.854Z,98557.94
2018-01-28T06:28:09.324Z,98560.17
2018-01-28T06:30:37.635Z,98560.09
2018-01-28T06:33:06.769Z,98563.81
2018-01-28T06:35:35.095Z,98570.59
2018-01-28T06:38:03.413Z,98562.77
2018-01-28T06:40:31.693Z,98561.72
2018-01-28T06:43:00.127Z,98566.73
2018-01-28T06:45:28.409Z,98570.97
2018-01-28T06:47:56.711Z,98574.59
2018-01-28T06:50:25.101Z,98577.70
2018-01-28T06:52:55.205Z,98574.83
2018-01-28T06:55:24.959Z,98581.77
2018-01-28T06:57:55.876Z,98576.30
2018-01-28T07:00:24.218Z,98578.07
2018-01-28T07:02:54.127Z,98576.81
2018-01-28T07:05:22.502Z,98582.72
2018-01-28T07:07:51.181Z,98581.11
2018-01-28T07:10:20.273Z,98592.00
2018-01-28T07:12:48.661Z,98586.63
2018-01-28T07:15:17.068Z,98587.91
2018-01-28T07:17:45.353Z,98589.16
2018-01-28T07:20:13.711Z,98589.75
2018-01-28T07:22:42.075Z,98592.04
2018-01-28T07:25:10.662Z,98598.56
2018-01-28T07:27:39.753Z,98594.36
2018-01-28T07:30:08.117Z,98588.99
2018-01-28T07:32:36.543Z,98587.48
2018-01-28T07:35:04.916Z,98597.02
2018-01-28T07:37:34.093Z,98599.75
2018-01-28T07:40:02.374Z,98585.83
2018-01-28T07:42:30.743Z,98583.82
2018-01-28T07:45:00.072Z,98585.73
2018-01-28T07:47:28.551Z,98585.58
2018-01-28T07:49:56.939Z,98595.42
2018-01-28T07:52:27.591Z,98596.83
2018-01-28T07:54:55.894Z,98598.69
2018-01-28T07:57:24.284Z,98603.03
2018-01-28T07:59:52.820Z,98592.00
2018-01-28T08:02:21.194Z,98599.74
2018-01-28T08:04:49.570Z,98590.20
2018-01-28T08:07:17.926Z,98587.50
2018-01-28T08:23:31.591Z,98599.71
2018-01-28T08:26:00.152Z,98601.77
2018-01-28T08:31:30.576Z,98616.48
2018-01-28T08:33:59.262Z,98622.05
2018-01-28T08:36:29.905Z,98630.17
2018-01-28T08:38:58.993Z,98633.57
2018-01-28T08:41:27.469Z,98648.31
2018-01-28T08:43:55.954Z,98634.03
2018-01-28T08:46:24.286Z,98640.02
2018-01-28T08:48:52.622Z,98641.87
2018-01-28T08:51:21.032Z,98646.53
2018-01-28T08:53:49.556Z,98650.36
2018-01-28T08:56:19.632Z,98648.61
2018-01-28T08:58:48.093Z,98649.48
2018-01-28T09:01:17.001Z,98655.67
2018-01-28T09:03:45.420Z,98658.59
2018-01-28T09:06:13.874Z,98656.76
2018-01-28T09:08:42.586Z,98662.03
2018-01-28T09:11:10.890Z,98660.99
2018-01-28T09:13:40.141Z,98663.77
2018-01-28T09:16:08.600Z,98667.86
2018-01-28T09:18:37.131Z,98666.01
2018-01-28T09:21:05.505Z,98662.69
2018-01-28T09:23:34.615Z,98669.06
2018-01-28T09:26:03.174Z,98662.00
2018-01-28T09:28:31.459Z,98659.04
2018-01-28T09:30:59.962Z,98667.48
2018-01-28T09:33:30.584Z,98673.55
2018-01-28T09:35:58.970Z,98697.16
2018-01-28T09:38:27.340Z,98673.34
2018-01-28T09:40:55.723Z,98667.97
2018-01-28T09:43:24.869Z,98668.50
2018-01-28T09:45:53.204Z,98662.27
2018-01-28T09:48:22.453Z,98663.84
2018-01-28T09:50:50.798Z,98665.23
2018-01-28T09:53:19.299Z,98660.19
2018-01-28T09:55:50.227Z,98658.98
2018-01-28T09:58:20.478Z,98661.58
2018-01-28T10:00:51.969Z,98662.02
2018-01-28T10:03:20.374Z,98667.36
2018-01-28T10:05:50.460Z,98672.22
2018-01-28T10:08:18.855Z,98675.95
2018-01-28T10:10:47.224Z,98677.83
2018-01-28T10:13:15.744Z,98671.31
2018-01-28T10:15:44.995Z,98671.75
2018-01-28T10:18:13.342Z,98668.11
2018-01-28T10:20:41.768Z,98662.32
2018-01-28T10:23:11.011Z,98662.94
2018-01-28T10:25:40.131Z,98665.17
2018-01-28T10:28:10.173Z,98658.92
2018-01-28T10:30:40.254Z,98658.50
2018-01-28T10:33:08.737Z,98661.22
2018-01-28T10:35:39.917Z,98668.98
2018-01-28T10:38:08.399Z,98669.94
2018-01-28T10:40:36.876Z,98666.35
2018-01-28T10:43:05.941Z,98674.89
2018-01-28T10:45:34.356Z,98665.05
2018-01-28T10:48:02.765Z,98661.78
2018-01-28T10:50:33.166Z,98655.67
2018-01-28T10:53:05.739Z,98653.22
2018-01-28T10:55:34.207Z,98662.30
2018-01-28T10:58:02.520Z,98653.54
2018-01-28T11:00:30.923Z,98655.26
2018-01-28T11:02:59.349Z,98651.96
2018-01-28T11:05:28.576Z,98659.31
2018-01-28T11:07:57.030Z,98652.44
2018-01-28T11:10:26.395Z,98655.98
2018-01-28T11:12:54.945Z,98651.55
2018-01-28T11:15:23.400Z,98650.14
2018-01-28T11:17:51.808Z,98650.31
2018-01-28T11:20:21.017Z,98654.92
2018-01-28T11:22:51.326Z,98657.95
2018-01-28T11:25:22.190Z,98658.61
2018-01-28T11:27:51.281Z,98661.20
2018-01-28T11:30:22.354Z,98654.06
2018-01-28T11:32:50.799Z,98662.29
2018-01-28T11:35:19.113Z,98660.13
2018-01-28T11:37:47.542Z,98658.95
2018-01-28T11:40:16.975Z,98668.47
2018-01-28T11:42:46.100Z,98662.42
2018-01-28T11:45:14.448Z,98654.34
2018-01-28T11:47:42.957Z,98657.56
2018-01-28T11:50:13.174Z,98648.42
2018-01-28T11:52:42.301Z,98648.72
2018-01-28T11:55:10.674Z,98650.19
2018-01-28T11:57:39.854Z,98653.77
2018-01-28T12:00:08.217Z,98655.30
2018-01-28T12:02:36.610Z,98648.65
2018-01-28T12:05:06.813Z,98639.48
2018-01-28T12:07:35.340Z,98643.17
2018-01-28T12:10:05.445Z,98630.22
2018-01-28T12:12:33.916Z,98634.69
2018-01-28T12:15:04.136Z,98627.98
2018-01-28T12:17:32.513Z,98622.87
2018-01-28T12:20:03.484Z,98616.29
2018-01-28T12:22:31.964Z,98618.38
2018-01-28T12:25:02.487Z,98611.36
2018-01-28T12:27:32.622Z,98613.31
2018-01-28T12:30:03.251Z,98605.61
2018-01-28T12:32:34.144Z,98606.17
2018-01-28T12:35:02.770Z,98603.84
2018-01-28T12:37:31.866Z,98613.30
2018-01-28T12:40:00.256Z,98604.63
2018-01-28T12:42:30.298Z,98602.84
2018-01-28T12:44:58.772Z,98603.94
2018-01-28T12:47:27.146Z,98607.55
2018-01-28T12:49:56.273Z,98600.47
2018-01-28T12:52:24.702Z,98605.10
2018-01-28T12:54:54.140Z,98604.39
2018-01-28T12:57:22.628Z,98604.94
2018-01-28T12:59:51.016Z,98603.03
2018-01-28T13:02:20.196Z,98604.27
2018-01-28T13:04:50.374Z,98604.95
2018-01-28T13:07:18.792Z,98609.02
2018-01-28T13:09:47.279Z,98604.58
2018-01-28T13:12:16.716Z,98601.34
2018-01-28T13:14:45.190Z,98592.28
2018-01-28T13:17:15.217Z,98588.16
2018-01-28T13:19:45.396Z,98596.52
2018-01-28T13:22:13.943Z,98600.61
2018-01-28T13:24:42.594Z,98605.30
2018-01-28T13:27:10.955Z,98589.50
2018-01-28T13:29:39.673Z,98595.23
2018-01-28T13:32:08.997Z,98596.70
2018-01-28T13:34:37.385Z,98592.04
2018-01-28T13:37:05.766Z,98588.29
2018-01-28T13:39:34.943Z,98589.02
2018-01-28T13:42:03.314Z,98583.23
2018-01-28T13:44:31.715Z,98579.48
2018-01-28T13:47:00.375Z,98582.30
2018-01-28T13:49:31.533Z,98581.52
2018-01-28T13:51:59.926Z,98580.47
2018-01-28T13:54:31.168Z,98580.26
2018-01-28T13:56:59.576Z,98575.95
2018-01-28T13:59:30.705Z,98581.91
2018-01-28T14:02:00.422Z,98581.15
2018-01-28T14:04:28.779Z,98581.96
2018-01-28T14:06:59.006Z,98583.27
2018-01-28T14:09:32.492Z,98574.76
2018-01-28T14:12:00.884Z,98582.01
2018-01-28T14:14:29.424Z,98578.72
2018-01-28T14:16:59.732Z,98580.91
2018-01-28T14:19:28.128Z,98582.50
2018-01-28T14:21:59.015Z,98577.89
2018-01-28T14:24:27.420Z,98591.14
2018-01-28T14:26:58.548Z,98582.34
2018-01-28T14:29:26.966Z,98580.97
2018-01-28T14:31:57.895Z,98580.52
2018-01-28T14:34:28.185Z,98574.76
2018-01-28T14:36:56.706Z,98576.02
2018-01-28T14:39:25.111Z,98584.94
2018-01-28T14:41:53.511Z,98586.53
2018-01-28T14:44:23.576Z,98580.92
2018-01-28T14:46:51.972Z,98586.48
2018-01-28T14:49:20.962Z,98587.34
2018-01-28T14:51:49.452Z,98585.49
2018-01-28T14:54:17.818Z,98592.26
2018-01-28T14:56:46.316Z,98590.00
2018-01-28T14:59:15.396Z,98581.47
2018-01-28T15:01:44.619Z,98584.48
2018-01-28T15:04:13.799Z,98587.78
2018-01-28T15:06:43.866Z,98589.00
2018-01-28T15:09:19.958Z,98588.45
2018-01-28T15:11:55.420Z,98589.22
2018-01-28T15:14:33.850Z,98590.86
2018-01-28T15:17:02.226Z,98588.67
2018-01-28T15:32:31.605Z,98601.69
2018-01-28T15:35:00.034Z,98595.69
2018-01-28T15:37:28.466Z,98595.25
2018-01-28T15:39:56.787Z,98591.06
2018-01-28T15:42:25.107Z,98592.94
2018-01-28T15:44:53.503Z,98597.19
2018-01-28T15:47:21.835Z,98594.66
2018-01-28T15:49:50.179Z,98601.36
2018-01-28T15:52:22.641Z,98599.17
2018-01-28T15:54:51.630Z,98606.63
2018-01-28T15:57:22.048Z,98604.88
2018-01-28T15:59:50.420Z,98612.28
2018-01-28T16:02:20.502Z,98610.91
2018-01-28T16:04:50.867Z,98617.61
2018-01-28T16:07:19.382Z,98619.66
2018-01-28T16:09:52.257Z,98617.69
2018-01-28T16:12:20.915Z,98618.17
2018-01-28T16:14:49.283Z,98618.67
2018-01-28T16:17:17.651Z,98616.25
2018-01-28T16:19:46.044Z,98612.86
2018-01-28T16:22:15.260Z,98616.52
2018-01-28T16:24:44.843Z,98618.64
2018-01-28T16:27:13.331Z,98620.06
2018-01-28T16:29:41.807Z,98628.70
2018-01-28T16:32:10.239Z,98627.20
2018-01-28T16:34:39.386Z,98629.06
2018-01-28T16:37:08.587Z,98623.93
2018-01-28T16:39:36.968Z,98633.12
2018-01-28T16:42:07.074Z,98624.65
2018-01-28T16:44:35.470Z,98630.09
2018-01-28T16:47:03.888Z,98624.98
2018-01-28T16:49:34.056Z,98633.81
2018-01-28T16:52:02.432Z,98631.67
2018-01-28T16:54:30.986Z,98637.52
2018-01-28T16:56:59.546Z,98642.95
2018-01-28T16:59:27.988Z,98631.05
2018-01-28T17:01:58.076Z,98631.50
2018-01-28T17:04:27.263Z,98626.13
2018-01-28T17:06:55.585Z,98629.92
2018-01-28T17:09:23.977Z,98632.44
2018-01-28T17:11:52.387Z,98628.70
2018-01-28T17:14:21.578Z,98625.73
2018-01-28T17:16:51.664Z,98627.83
2018-01-28T17:19:20.072Z,98627.05
2018-01-28T17:21:48.426Z,98627.01
2018-01-28T17:24:16.809Z,98617.22
2018-01-28T17:26:45.194Z,98611.81
2018-01-28T17:29:13.646Z,98617.72
2018-01-28T17:31:43.729Z,98606.00
2018-01-28T17:34:13.067Z,98605.50
2018-01-28T17:36:42.781Z,98613.03
2018-01-28T17:39:14.348Z,98619.30
2018-01-28T17:41:44.043Z,98613.91
2018-01-28T17:44:12.724Z,98610.17
2018-01-28T17:46:41.133Z,98610.00
2018-01-28T17:49:12.287Z,98607.91
2018-01-28T17:51:40.850Z,98615.95
2018-01-28T17:54:09.431Z,98614.34
2018-01-28T17:56:40.160Z,98623.59
2018-01-28T17:59:10.215Z,98621.77
2018-01-28T18:01:39.080Z,98626.77
2018-01-28T18:04:07.488Z,98624.24
2018-01-28T18:06:36.651Z,98625.11
2018-01-28T18:09:05.079Z,98623.52
2018-01-28T18:11:34.437Z,98621.17
2018-01-28T18:14:02.797Z,98618.59
2018-01-28T18:16:31.272Z,98619.42
2018-01-28T18:19:01.326Z,98619.97
2018-01-28T18:21:29.927Z,98620.80
2018-01-28T18:23:58.514Z,98618.28
2018-01-28T18:26:28.656Z,98625.30
2018-01-28T18:28:57.245Z,98621.06
2018-01-28T18:31:28.317Z,98635.30
2018-01-28T18:33:56.811Z,98634.86
2018-01-28T18:36:25.339Z,98636.95
2018-01-28T18:38:56.102Z,98641.51
2018-01-28T18:41:25.383Z,98628.02
2018-01-28T18:43:55.687Z,98628.73
2018-01-28T18:46:26.021Z,98633.30
2018-01-28T18:48:54.523Z,98628.52
2018-01-28T18:51:23.838Z,98627.17
2018-01-28T18:53:52.392Z,98632.62
2018-01-28T18:56:20.778Z,98629.20
2018-01-28T18:58:50.199Z,98632.73
2018-01-28T19:01:19.389Z,98641.38
2018-01-28T19:03:49.425Z,98641.93
2018-01-28T19:06:17.904Z,98644.98
2018-01-28T19:08:46.478Z,98641.67
2018-01-28T19:11:16.732Z,98637.28
2018-01-28T19:13:46.212Z,98637.54
2018-01-28T19:16:17.358Z,98640.57
2018-01-28T19:18:46.063Z,98646.99
2018-01-28T19:21:14.550Z,98642.32
2018-01-28T19:23:43.152Z,98639.74
2018-01-28T19:26:11.723Z,98648.25
2018-01-28T19:28:40.205Z,98650.26
2018-01-28T19:31:08.988Z,98648.23
2018-01-28T19:33:39.213Z,98643.45
2018-01-28T19:36:10.337Z,98645.28
2018-01-28T19:38:38.922Z,98632.55
2018-01-28T19:41:10.561Z,98630.61
2018-01-28T19:43:39.108Z,98637.52
2018-01-28T19:46:08.159Z,98643.28
2018-01-28T19:48:36.659Z,98647.31
2018-01-28T19:51:06.235Z,98645.55
2018-01-28T19:53:34.879Z,98654.23
2018-01-28T19:56:05.164Z,98647.85
2018-01-28T19:58:34.710Z,98649.93
2018-01-28T20:01:05.740Z,98642.34
2018-01-28T20:03:34.480Z,98647.68
2018-01-28T20:06:03.762Z,98655.58
2018-01-28T20:08:34.810Z,98651.23
2018-01-28T20:11:03.485Z,98650.66
2018-01-28T20:13:32.303Z,98652.63
2018-01-28T20:16:01.849Z,98642.38
2018-01-28T20:18:30.757Z,98638.09
2018-01-28T20:20:59.431Z,98635.88
2018-01-28T20:23:27.998Z,98639.48
2018-01-28T20:25:56.637Z,98644.89
2018-01-28T20:28:25.325Z,98640.43
2018-01-28T20:30:54.632Z,98641.50
2018-01-28T20:33:24.863Z,98640.49
2018-01-28T20:35:55.908Z,98633.17
2018-01-28T20:38:24.579Z,98630.89
2018-01-28T20:40:54.189Z,98635.70
2018-01-28T20:43:22.914Z,98633.43
2018-01-28T20:45:51.600Z,98637.47
2018-01-28T20:48:20.262Z,98634.34
2018-01-28T20:50:49.154Z,98637.10
2018-01-28T20:53:17.667Z,98639.95
2018-01-28T20:55:47.889Z,98638.50
2018-01-28T20:58:18.497Z,98626.56
2018-01-28T21:00:49.587Z,98626.76
2018-01-28T21:03:18.232Z,98629.08
2018-01-28T21:05:46.776Z,98631.88
2018-01-28T21:08:18.272Z,98639.24
2018-01-28T21:10:46.845Z,98639.80
2018-01-28T21:13:15.748Z,98642.02
2018-01-28T21:15:44.228Z,98639.73
2018-01-28T21:18:13.328Z,98642.81
2018-01-28T21:20:43.431Z,98636.16
2018-01-28T21:23:12.674Z,98636.31
2018-01-28T21:25:48.091Z,98643.84
2018-01-28T21:28:16.500Z,98634.44
2018-01-28T21:30:44.800Z,98632.11
2018-01-28T21:33:13.928Z,98630.95
2018-01-28T21:35:42.352Z,98625.31
2018-01-28T21:38:12.642Z,98634.90
2018-01-28T21:40:43.317Z,98635.50
2018-01-28T21:43:14.379Z,98631.55
2018-01-28T21:45:42.775Z,98634.28
2018-01-28T21:48:11.148Z,98634.10
2018-01-28T21:50:39.488Z,98637.30
2018-01-28T21:53:07.808Z,98633.73
2018-01-28T21:55:36.620Z,98630.95
2018-01-28T21:58:06.576Z,98627.84
2018-01-28T22:00:36.654Z,98627.27
2018-01-28T22:03:05.057Z,98625.00
2018-01-28T22:05:33.401Z,98629.37
2018-01-28T22:08:01.741Z,98627.98
2018-01-28T22:10:30.075Z,98624.00
2018-01-28T22:12:58.441Z,98621.39
2018-01-28T22:15:26.912Z,98627.87
2018-01-28T22:17:55.272Z,98629.44
2018-01-28T22:20:23.625Z,98626.33
2018-01-28T22:22:53.647Z,98632.06
2018-01-28T22:25:24.121Z,98631.47
2018-01-28T22:27:52.574Z,98627.92
2018-01-28T22:30:21.934Z,98628.13
2018-01-28T22:32:50.993Z,98633.78
2018-01-28T22:35:19.413Z,98626.91
2018-01-28T22:37:48.577Z,98624.23
2018-01-28T22:40:18.933Z,98623.64
2018-01-28T22:42:49.098Z,98619.66
2018-01-28T22:45:18.273Z,98620.40
2018-01-28T22:47:46.654Z,98620.25
2018-01-28T22:50:15.770Z,98623.06
2018-01-28T22:52:45.746Z,98625.07
2018-01-28T22:55:14.889Z,98619.95
2018-01-28T22:57:43.220Z,98614.37
2018-01-28T23:00:11.558Z,98617.74
2018-01-28T23:02:39.868Z,98612.21
2018-01-28T23:05:08.199Z,98618.56
2018-01-28T23:07:37.313Z,98611.85
2018-01-28T23:10:05.659Z,98603.97
2018-01-28T23:12:35.783Z,98606.95
2018-01-28T23:15:04.123Z,98594.41
2018-01-28T23:17:34.659Z,98593.69
2018-01-28T23:20:05.381Z,98585.80
2018-01-28T23:22:36.394Z,98583.36
2018-01-28T23:25:05.503Z,98587.66
2018-01-28T23:27:42.258Z,98584.03
2018-01-28T23:30:13.932Z,98588.76
2018-01-28T23:32:42.223Z,98582.54
2018-01-28T23:35:12.210Z,98579.25
2018-01-28T23:37:40.741Z,98575.57
2018-01-28T23:40:09.879Z,98578.58
2018-01-28T23:42:38.258Z,98575.24
2018-01-28T23:45:07.366Z,98571.05
2018-01-28T23:47:37.539Z,98582.00
2018-01-28T23:50:06.394Z,98576.96
2018-01-28T23:52:37.357Z,98582.36
2018-01-28T23:55:08.455Z,98572.72
2018-01-28T23:57:38.583Z,98575.68
